TUP9664 ULLI-UUWW
Flight info
| Callsign | TUP9664 |
|---|---|
| Flight time | N/A |
| Altitude | 35000 |
| Route | K0839F350 SUGIN T873 NIRGI T73 DESUD T834 BEKIP |
| Aircraft | B752/M-SDE2E3FGHIJ3J4J7RWXY/LB1 |
Departure
| Time | 2026-05-07 12:44 |
|---|---|
| Airport | Pulkovo Airport (ULLI) |
Arrival
| Time | N/A |
|---|---|
| Airport | Vnukovo International Airport (UUWW) |
| Time | Latitude | Longitude | Altitude | Speed | Heading |
|---|---|---|---|---|---|
| 2026-05-07 12:23 | 59.79946 | 30.29347 | 76 ft | 0 kts | 196° |
| 2026-05-07 12:30 | 59.79947 | 30.29348 | 75 ft | 1 kts | 196° |
| 2026-05-07 12:31 | 59.79961 | 30.29356 | 75 ft | 2 kts | 196° |
| 2026-05-07 12:31 | 59.79975 | 30.29364 | 75 ft | 2 kts | 196° |
| 2026-05-07 12:31 | 59.79993 | 30.29375 | 75 ft | 0 kts | 203° |
| 2026-05-07 12:31 | 59.80008 | 30.29395 | 75 ft | 3 kts | 230° |
| 2026-05-07 12:32 | 59.80014 | 30.29428 | 75 ft | 2 kts | 276° |
| 2026-05-07 12:32 | 59.80012 | 30.29444 | 75 ft | 0 kts | 304° |
| 2026-05-07 12:38 | 59.80012 | 30.29443 | 75 ft | 0 kts | 303° |
| 2026-05-07 12:38 | 59.80015 | 30.29425 | 75 ft | 4 kts | 287° |
| 2026-05-07 12:38 | 59.80027 | 30.29347 | 75 ft | 8 kts | 286° |
| 2026-05-07 12:38 | 59.80051 | 30.29178 | 74 ft | 16 kts | 285° |
| 2026-05-07 12:39 | 59.80093 | 30.28904 | 75 ft | 23 kts | 287° |
| 2026-05-07 12:39 | 59.80146 | 30.28546 | 75 ft | 29 kts | 285° |
| 2026-05-07 12:39 | 59.80204 | 30.28154 | 75 ft | 29 kts | 286° |
| 2026-05-07 12:39 | 59.80259 | 30.27785 | 77 ft | 27 kts | 285° |
| 2026-05-07 12:40 | 59.80310 | 30.27445 | 79 ft | 25 kts | 285° |
| 2026-05-07 12:40 | 59.80359 | 30.27115 | 79 ft | 24 kts | 287° |
| 2026-05-07 12:40 | 59.80405 | 30.26807 | 80 ft | 22 kts | 286° |
| 2026-05-07 12:40 | 59.80448 | 30.26511 | 79 ft | 22 kts | 287° |
| 2026-05-07 12:41 | 59.80489 | 30.26237 | 82 ft | 20 kts | 285° |
| 2026-05-07 12:41 | 59.80528 | 30.25976 | 81 ft | 19 kts | 287° |
| 2026-05-07 12:41 | 59.80568 | 30.25707 | 81 ft | 24 kts | 287° |
| 2026-05-07 12:41 | 59.80620 | 30.25359 | 82 ft | 26 kts | 286° |
| 2026-05-07 12:42 | 59.80673 | 30.25011 | 81 ft | 26 kts | 286° |
| 2026-05-07 12:42 | 59.80723 | 30.24699 | 79 ft | 21 kts | 298° |
| 2026-05-07 12:42 | 59.80832 | 30.24582 | 78 ft | 15 kts | 346° |
| 2026-05-07 12:42 | 59.80940 | 30.24564 | 76 ft | 14 kts | 28° |
| 2026-05-07 12:43 | 59.80954 | 30.24674 | 76 ft | 0 kts | 106° |
| 2026-05-07 12:43 | 59.80949 | 30.24708 | 76 ft | 5 kts | 106° |
| 2026-05-07 12:43 | 59.80909 | 30.24965 | 78 ft | 47 kts | 106° |
| 2026-05-07 12:43 | 59.80749 | 30.26040 | 79 ft | 114 kts | 107° |
| 2026-05-07 12:44 | 59.80476 | 30.27904 | 245 ft | 156 kts | 106° |
| 2026-05-07 12:44 | 59.80166 | 30.29987 | 984 ft | 158 kts | 105° |
| 2026-05-07 12:44 | 59.79878 | 30.31959 | 1782 ft | 151 kts | 103° |
| 2026-05-07 12:44 | 59.79589 | 30.33950 | 2355 ft | 155 kts | 103° |
| 2026-05-07 12:45 | 59.79282 | 30.36003 | 2968 ft | 158 kts | 103° |
| 2026-05-07 12:45 | 59.78958 | 30.38147 | 3447 ft | 171 kts | 104° |
| 2026-05-07 12:45 | 59.78604 | 30.40483 | 3916 ft | 186 kts | 104° |
| 2026-05-07 12:45 | 59.78217 | 30.43016 | 4423 ft | 201 kts | 104° |
| 2026-05-07 12:46 | 59.77804 | 30.45764 | 4953 ft | 216 kts | 104° |
| 2026-05-07 12:46 | 59.77369 | 30.48672 | 5574 ft | 229 kts | 104° |
| 2026-05-07 12:46 | 59.76895 | 30.51828 | 6064 ft | 248 kts | 104° |
| 2026-05-07 12:46 | 59.76392 | 30.55168 | 6651 ft | 263 kts | 105° |
| 2026-05-07 12:47 | 59.75867 | 30.58714 | 7471 ft | 270 kts | 106° |
| 2026-05-07 12:47 | 59.75008 | 30.62009 | 8190 ft | 278 kts | 126° |
| 2026-05-07 12:47 | 59.73855 | 30.65129 | 8989 ft | 283 kts | 126° |
| 2026-05-07 12:47 | 59.72720 | 30.68325 | 9743 ft | 289 kts | 127° |
| 2026-05-07 12:48 | 59.71559 | 30.71558 | 10438 ft | 296 kts | 126° |
| 2026-05-07 12:48 | 59.70310 | 30.75023 | 10733 ft | 318 kts | 127° |
| 2026-05-07 12:48 | 59.68976 | 30.78718 | 11050 ft | 338 kts | 127° |
| 2026-05-07 12:48 | 59.67590 | 30.82553 | 11440 ft | 354 kts | 127° |
| 2026-05-07 12:49 | 59.66145 | 30.86550 | 12165 ft | 359 kts | 127° |
| 2026-05-07 12:49 | 59.64698 | 30.90540 | 12867 ft | 363 kts | 128° |
| 2026-05-07 12:49 | 59.63226 | 30.94591 | 13540 ft | 368 kts | 128° |
| 2026-05-07 12:49 | 59.61715 | 30.98742 | 14224 ft | 373 kts | 129° |
| 2026-05-07 12:50 | 59.60196 | 31.02906 | 14895 ft | 378 kts | 129° |
| 2026-05-07 12:50 | 59.58671 | 31.07080 | 15531 ft | 383 kts | 130° |
| 2026-05-07 12:50 | 59.57114 | 31.11332 | 16224 ft | 386 kts | 130° |
| 2026-05-07 12:50 | 59.55537 | 31.15631 | 16808 ft | 392 kts | 130° |
| 2026-05-07 12:51 | 59.53923 | 31.20023 | 17410 ft | 397 kts | 130° |
| 2026-05-07 12:51 | 59.52323 | 31.24373 | 18018 ft | 400 kts | 131° |
| 2026-05-07 12:51 | 59.50680 | 31.28828 | 18646 ft | 403 kts | 131° |
| 2026-05-07 12:51 | 59.49042 | 31.33260 | 19162 ft | 409 kts | 131° |
| 2026-05-07 12:52 | 59.47362 | 31.37798 | 19784 ft | 412 kts | 131° |
| 2026-05-07 12:52 | 59.45665 | 31.42373 | 20291 ft | 417 kts | 132° |
| 2026-05-07 12:52 | 59.43952 | 31.46986 | 20859 ft | 421 kts | 132° |
| 2026-05-07 12:52 | 59.42224 | 31.51624 | 21358 ft | 425 kts | 132° |
| 2026-05-07 12:53 | 59.40483 | 31.56294 | 21902 ft | 428 kts | 133° |
| 2026-05-07 12:53 | 59.38710 | 31.61032 | 22382 ft | 433 kts | 133° |
| 2026-05-07 12:53 | 59.36938 | 31.65765 | 22906 ft | 436 kts | 134° |
| 2026-05-07 12:53 | 59.35148 | 31.70538 | 23441 ft | 438 kts | 134° |
| 2026-05-07 12:54 | 59.33322 | 31.75389 | 23864 ft | 443 kts | 134° |
| 2026-05-07 12:54 | 59.31492 | 31.80249 | 24410 ft | 444 kts | 134° |
| 2026-05-07 12:54 | 59.29658 | 31.85102 | 24868 ft | 448 kts | 134° |
| 2026-05-07 12:54 | 59.27821 | 31.89958 | 25369 ft | 449 kts | 134° |
| 2026-05-07 12:55 | 59.25942 | 31.94912 | 25740 ft | 454 kts | 134° |
| 2026-05-07 12:55 | 59.24090 | 31.99790 | 26301 ft | 454 kts | 134° |
| 2026-05-07 12:55 | 59.22192 | 32.04771 | 26707 ft | 457 kts | 135° |
| 2026-05-07 12:55 | 59.20286 | 32.09766 | 27149 ft | 459 kts | 135° |
| 2026-05-07 12:56 | 59.18392 | 32.14718 | 27545 ft | 462 kts | 135° |
| 2026-05-07 12:56 | 59.16472 | 32.19725 | 27887 ft | 466 kts | 135° |
| 2026-05-07 12:56 | 59.14524 | 32.24802 | 28353 ft | 467 kts | 135° |
| 2026-05-07 12:56 | 59.12588 | 32.29835 | 28823 ft | 467 kts | 135° |
| 2026-05-07 12:57 | 59.10646 | 32.34864 | 29011 ft | 474 kts | 135° |
| 2026-05-07 12:57 | 59.08648 | 32.40034 | 29427 ft | 476 kts | 135° |
| 2026-05-07 12:57 | 59.06690 | 32.45093 | 29880 ft | 475 kts | 135° |
| 2026-05-07 12:57 | 59.04676 | 32.50277 | 30138 ft | 480 kts | 135° |
| 2026-05-07 12:58 | 59.02668 | 32.55437 | 30393 ft | 484 kts | 135° |
| 2026-05-07 12:58 | 59.00659 | 32.60592 | 30824 ft | 484 kts | 135° |
| 2026-05-07 12:58 | 58.98598 | 32.65863 | 31056 ft | 488 kts | 136° |
| 2026-05-07 12:58 | 58.96583 | 32.71009 | 31404 ft | 488 kts | 135° |
| 2026-05-07 12:59 | 58.94508 | 32.76295 | 31685 ft | 490 kts | 135° |
| 2026-05-07 12:59 | 58.92435 | 32.81565 | 31847 ft | 495 kts | 136° |
| 2026-05-07 12:59 | 58.90360 | 32.86829 | 32135 ft | 496 kts | 135° |
| 2026-05-07 12:59 | 58.88279 | 32.92098 | 32515 ft | 495 kts | 135° |
| 2026-05-07 13:00 | 58.86178 | 32.97406 | 32863 ft | 495 kts | 135° |
| 2026-05-07 13:00 | 58.84116 | 33.02600 | 33253 ft | 494 kts | 135° |
| 2026-05-07 13:00 | 58.82025 | 33.07855 | 33487 ft | 495 kts | 135° |
| 2026-05-07 13:00 | 58.79949 | 33.13065 | 33858 ft | 495 kts | 135° |
| 2026-05-07 13:01 | 58.77835 | 33.18357 | 34200 ft | 493 kts | 135° |
| 2026-05-07 13:01 | 58.75751 | 33.23561 | 34467 ft | 494 kts | 135° |
| 2026-05-07 13:01 | 58.73646 | 33.28810 | 34868 ft | 491 kts | 135° |
| 2026-05-07 13:01 | 58.71585 | 33.33936 | 34990 ft | 491 kts | 135° |
| 2026-05-07 13:02 | 58.67400 | 33.44305 | 34990 ft | 489 kts | 134° |
| 2026-05-07 13:02 | 58.63234 | 33.54581 | 34988 ft | 489 kts | 134° |
| 2026-05-07 13:03 | 58.59065 | 33.64824 | 34988 ft | 488 kts | 134° |
| 2026-05-07 13:03 | 58.54906 | 33.74999 | 34974 ft | 486 kts | 135° |
| 2026-05-07 13:04 | 58.50731 | 33.85165 | 34974 ft | 486 kts | 135° |
| 2026-05-07 13:04 | 58.46568 | 33.95259 | 34980 ft | 489 kts | 135° |
| 2026-05-07 13:05 | 58.42361 | 34.05419 | 34967 ft | 488 kts | 135° |
| 2026-05-07 13:05 | 58.38177 | 34.15478 | 34965 ft | 488 kts | 135° |
| 2026-05-07 13:06 | 58.33967 | 34.25557 | 34961 ft | 488 kts | 135° |
| 2026-05-07 13:06 | 58.29743 | 34.35628 | 34955 ft | 487 kts | 135° |
| 2026-05-07 13:07 | 58.25487 | 34.45729 | 34951 ft | 487 kts | 135° |
| 2026-05-07 13:07 | 58.21243 | 34.55566 | 34945 ft | 482 kts | 140° |
| 2026-05-07 13:08 | 58.16340 | 34.63981 | 34945 ft | 476 kts | 145° |
| 2026-05-07 13:08 | 58.11324 | 34.72097 | 34936 ft | 474 kts | 147° |
| 2026-05-07 13:09 | 58.06273 | 34.80127 | 34931 ft | 475 kts | 147° |
| 2026-05-07 13:09 | 58.01221 | 34.88091 | 34929 ft | 475 kts | 147° |
| 2026-05-07 13:10 | 57.96167 | 34.96014 | 34932 ft | 475 kts | 147° |
| 2026-05-07 13:10 | 57.91268 | 35.04331 | 34938 ft | 483 kts | 136° |
| 2026-05-07 13:11 | 57.87595 | 35.15110 | 34937 ft | 496 kts | 118° |
| 2026-05-07 13:11 | 57.85131 | 35.27177 | 34931 ft | 500 kts | 115° |
| 2026-05-07 13:12 | 57.82694 | 35.39386 | 34930 ft | 498 kts | 114° |
| 2026-05-07 13:12 | 57.80270 | 35.51477 | 34928 ft | 497 kts | 114° |
| 2026-05-07 13:13 | 57.77823 | 35.63616 | 34935 ft | 497 kts | 114° |
| 2026-05-07 13:13 | 57.75378 | 35.75664 | 34923 ft | 496 kts | 115° |
| 2026-05-07 13:14 | 57.72915 | 35.87741 | 34920 ft | 496 kts | 115° |
| 2026-05-07 13:14 | 57.70443 | 35.99779 | 34932 ft | 501 kts | 115° |
| 2026-05-07 13:15 | 57.67920 | 36.11991 | 34920 ft | 509 kts | 115° |
| 2026-05-07 13:15 | 57.65339 | 36.24411 | 34911 ft | 515 kts | 115° |
| 2026-05-07 13:16 | 57.62757 | 36.36772 | 34917 ft | 516 kts | 115° |
| 2026-05-07 13:16 | 57.60149 | 36.49176 | 34907 ft | 515 kts | 115° |
| 2026-05-07 13:17 | 57.57530 | 36.61552 | 34923 ft | 516 kts | 115° |
| 2026-05-07 13:17 | 57.54893 | 36.73943 | 34906 ft | 514 kts | 116° |
| 2026-05-07 13:18 | 57.52232 | 36.86366 | 34922 ft | 516 kts | 116° |
| 2026-05-07 13:18 | 57.49571 | 36.98714 | 34910 ft | 515 kts | 116° |
| 2026-05-07 13:19 | 57.46921 | 37.10938 | 34908 ft | 515 kts | 116° |
| 2026-05-07 13:19 | 57.44235 | 37.23256 | 34915 ft | 515 kts | 116° |
| 2026-05-07 13:20 | 57.41549 | 37.35499 | 34915 ft | 516 kts | 116° |
| 2026-05-07 13:20 | 57.38837 | 37.47792 | 34915 ft | 517 kts | 116° |
| 2026-05-07 13:21 | 57.36116 | 37.60057 | 34899 ft | 511 kts | 116° |
| 2026-05-07 13:21 | 57.34791 | 37.66014 | 34844 ft | 495 kts | 117° |
| 2026-05-07 13:21 | 57.33488 | 37.71850 | 34346 ft | 491 kts | 117° |
| 2026-05-07 13:22 | 57.32171 | 37.77708 | 33339 ft | 495 kts | 117° |
| 2026-05-07 13:22 | 57.30679 | 37.83322 | 32496 ft | 491 kts | 125° |
| 2026-05-07 13:22 | 57.28802 | 37.88586 | 31606 ft | 487 kts | 132° |
| 2026-05-07 13:22 | 57.26623 | 37.93283 | 30616 ft | 484 kts | 140° |
| 2026-05-07 13:23 | 57.24172 | 37.97324 | 30006 ft | 470 kts | 148° |
| 2026-05-07 13:23 | 57.21496 | 38.00487 | 30027 ft | 443 kts | 158° |
| 2026-05-07 13:23 | 57.18765 | 38.02634 | 30004 ft | 414 kts | 169° |
| 2026-05-07 13:23 | 57.16024 | 38.03777 | 29995 ft | 397 kts | 180° |
| 2026-05-07 13:24 | 57.10536 | 38.03110 | 30066 ft | 402 kts | 199° |
| 2026-05-07 13:24 | 57.05133 | 37.99995 | 30076 ft | 413 kts | 203° |
| 2026-05-07 13:25 | 57.02378 | 37.98346 | 29948 ft | 415 kts | 199° |
| 2026-05-07 13:25 | 56.99504 | 37.97656 | 29812 ft | 423 kts | 182° |
| 2026-05-07 13:25 | 56.96609 | 37.98631 | 29705 ft | 435 kts | 165° |
| 2026-05-07 13:25 | 56.93899 | 38.01251 | 29593 ft | 448 kts | 147° |
| 2026-05-07 13:26 | 56.91659 | 38.05327 | 29486 ft | 461 kts | 130° |
| 2026-05-07 13:26 | 56.90111 | 38.10461 | 29380 ft | 471 kts | 115° |
| 2026-05-07 13:26 | 56.88975 | 38.16113 | 29231 ft | 482 kts | 112° |
| 2026-05-07 13:26 | 56.87826 | 38.21927 | 29034 ft | 497 kts | 112° |
| 2026-05-07 13:27 | 56.86636 | 38.27889 | 28882 ft | 508 kts | 112° |
| 2026-05-07 13:27 | 56.85418 | 38.33915 | 28883 ft | 509 kts | 112° |
| 2026-05-07 13:27 | 56.83792 | 38.46581 | 28885 ft | 513 kts | 98° |
| 2026-05-07 13:28 | 56.83344 | 38.59625 | 28894 ft | 525 kts | 92° |
| 2026-05-07 13:28 | 56.83109 | 38.72908 | 28884 ft | 524 kts | 93° |
| 2026-05-07 13:29 | 56.82867 | 38.86191 | 28884 ft | 525 kts | 93° |
| 2026-05-07 13:29 | 56.82610 | 38.99403 | 28880 ft | 525 kts | 93° |
| 2026-05-07 13:30 | 56.82335 | 39.12736 | 28881 ft | 524 kts | 93° |
| 2026-05-07 13:30 | 56.82055 | 39.25876 | 28880 ft | 523 kts | 93° |
| 2026-05-07 13:31 | 56.81761 | 39.39103 | 28884 ft | 522 kts | 93° |
| 2026-05-07 13:31 | 56.81466 | 39.52269 | 28883 ft | 521 kts | 92° |
| 2026-05-07 13:32 | 56.81158 | 39.65548 | 28880 ft | 522 kts | 93° |
| 2026-05-07 13:32 | 56.80853 | 39.78697 | 28880 ft | 519 kts | 93° |
| 2026-05-07 13:33 | 56.79698 | 39.91584 | 28891 ft | 517 kts | 110° |
| 2026-05-07 13:33 | 56.76700 | 40.03388 | 28879 ft | 513 kts | 117° |
| 2026-05-07 13:34 | 56.72369 | 40.21228 | 28880 ft | 514 kts | 115° |
| 2026-05-07 13:35 | 56.66662 | 40.44665 | 28885 ft | 513 kts | 115° |
| 2026-05-07 13:36 | 56.63776 | 40.56425 | 28884 ft | 513 kts | 115° |
| 2026-05-07 13:36 | 56.60858 | 40.68253 | 28883 ft | 513 kts | 116° |
| 2026-05-07 13:37 | 56.57944 | 40.79998 | 28882 ft | 513 kts | 116° |
| 2026-05-07 13:37 | 56.55019 | 40.91743 | 28878 ft | 513 kts | 116° |
| 2026-05-07 13:38 | 56.52037 | 41.03477 | 28875 ft | 513 kts | 120° |
| 2026-05-07 13:38 | 56.50071 | 41.08709 | 28893 ft | 508 kts | 132° |
| 2026-05-07 13:38 | 56.47738 | 41.13607 | 28875 ft | 508 kts | 132° |
| 2026-05-07 13:39 | 56.43176 | 41.23247 | 28872 ft | 507 kts | 132° |
| 2026-05-07 13:39 | 56.38043 | 41.31842 | 28899 ft | 500 kts | 153° |
| 2026-05-07 13:39 | 56.34880 | 41.34135 | 28902 ft | 495 kts | 168° |
| 2026-05-07 13:40 | 56.31475 | 41.34882 | 28901 ft | 490 kts | 181° |
| 2026-05-07 13:40 | 56.24683 | 41.34832 | 28879 ft | 490 kts | 182° |
| 2026-05-07 13:41 | 56.17881 | 41.34743 | 28880 ft | 490 kts | 182° |
| 2026-05-07 13:41 | 56.11073 | 41.34637 | 28843 ft | 492 kts | 182° |
| 2026-05-07 13:41 | 56.07676 | 41.34581 | 28544 ft | 491 kts | 182° |
| 2026-05-07 13:42 | 56.04241 | 41.34526 | 28166 ft | 487 kts | 182° |
| 2026-05-07 13:42 | 56.00887 | 41.34474 | 27792 ft | 486 kts | 182° |
| 2026-05-07 13:42 | 55.97503 | 41.34420 | 27420 ft | 487 kts | 182° |
| 2026-05-07 13:42 | 55.94137 | 41.34361 | 27050 ft | 488 kts | 182° |
| 2026-05-07 13:43 | 55.90731 | 41.34301 | 26677 ft | 490 kts | 182° |
| 2026-05-07 13:43 | 55.87323 | 41.34238 | 26305 ft | 491 kts | 182° |
| 2026-05-07 13:43 | 55.83929 | 41.34117 | 25932 ft | 491 kts | 186° |
| 2026-05-07 13:43 | 55.80598 | 41.32899 | 25580 ft | 486 kts | 202° |
| 2026-05-07 13:44 | 55.77602 | 41.30289 | 25248 ft | 484 kts | 212° |
| 2026-05-07 13:44 | 55.74715 | 41.27251 | 24873 ft | 486 kts | 212° |
| 2026-05-07 13:44 | 55.71811 | 41.24181 | 24486 ft | 486 kts | 212° |
| 2026-05-07 13:44 | 55.68883 | 41.21088 | 24097 ft | 485 kts | 212° |
| 2026-05-07 13:45 | 55.66056 | 41.18111 | 23713 ft | 474 kts | 212° |
| 2026-05-07 13:45 | 55.63227 | 41.15138 | 23328 ft | 467 kts | 212° |
| 2026-05-07 13:45 | 55.60438 | 41.12159 | 22852 ft | 468 kts | 215° |
| 2026-05-07 13:45 | 55.57894 | 41.08666 | 22375 ft | 461 kts | 224° |
| 2026-05-07 13:46 | 55.55759 | 41.04592 | 21909 ft | 455 kts | 234° |
| 2026-05-07 13:46 | 55.54018 | 40.99909 | 21438 ft | 454 kts | 243° |
| 2026-05-07 13:46 | 55.52769 | 40.94906 | 20967 ft | 441 kts | 252° |
| 2026-05-07 13:46 | 55.51977 | 40.89797 | 20496 ft | 426 kts | 261° |
| 2026-05-07 13:47 | 55.51701 | 40.84727 | 20029 ft | 414 kts | 270° |
| 2026-05-07 13:47 | 55.51838 | 40.79720 | 19565 ft | 402 kts | 275° |
| 2026-05-07 13:47 | 55.52052 | 40.74904 | 19224 ft | 389 kts | 275° |
| 2026-05-07 13:47 | 55.52251 | 40.70228 | 18903 ft | 375 kts | 275° |
| 2026-05-07 13:48 | 55.52439 | 40.65761 | 18577 ft | 362 kts | 274° |
| 2026-05-07 13:48 | 55.52625 | 40.61317 | 18276 ft | 370 kts | 274° |
| 2026-05-07 13:48 | 55.52811 | 40.56769 | 17975 ft | 375 kts | 275° |
| 2026-05-07 13:48 | 55.52996 | 40.52226 | 17668 ft | 370 kts | 274° |
| 2026-05-07 13:49 | 55.53178 | 40.47702 | 17358 ft | 366 kts | 274° |
| 2026-05-07 13:49 | 55.53357 | 40.43229 | 17053 ft | 366 kts | 274° |
| 2026-05-07 13:49 | 55.53531 | 40.38800 | 16755 ft | 364 kts | 274° |
| 2026-05-07 13:49 | 55.53705 | 40.34363 | 16436 ft | 362 kts | 274° |
| 2026-05-07 13:50 | 55.53876 | 40.29929 | 16140 ft | 360 kts | 274° |
| 2026-05-07 13:50 | 55.54044 | 40.25553 | 15847 ft | 359 kts | 274° |
| 2026-05-07 13:50 | 55.54211 | 40.21164 | 15546 ft | 357 kts | 274° |
| 2026-05-07 13:50 | 55.54375 | 40.16809 | 15244 ft | 355 kts | 274° |
| 2026-05-07 13:51 | 55.54537 | 40.12456 | 14962 ft | 354 kts | 274° |
| 2026-05-07 13:51 | 55.54695 | 40.08190 | 14915 ft | 349 kts | 274° |
| 2026-05-07 13:51 | 55.54852 | 40.03907 | 14913 ft | 353 kts | 273° |
| 2026-05-07 13:51 | 55.55046 | 39.99533 | 14924 ft | 364 kts | 278° |
| 2026-05-07 13:52 | 55.55573 | 39.95012 | 14861 ft | 392 kts | 282° |
| 2026-05-07 13:52 | 55.56190 | 39.90302 | 14598 ft | 390 kts | 282° |
| 2026-05-07 13:52 | 55.56797 | 39.85696 | 14351 ft | 384 kts | 282° |
| 2026-05-07 13:52 | 55.57403 | 39.81137 | 14102 ft | 386 kts | 282° |
| 2026-05-07 13:53 | 55.58016 | 39.76527 | 13863 ft | 383 kts | 282° |
| 2026-05-07 13:53 | 55.58621 | 39.71980 | 13601 ft | 381 kts | 283° |
| 2026-05-07 13:53 | 55.59231 | 39.67374 | 13352 ft | 379 kts | 283° |
| 2026-05-07 13:53 | 55.59827 | 39.62841 | 13098 ft | 379 kts | 282° |
| 2026-05-07 13:54 | 55.60424 | 39.58322 | 12851 ft | 377 kts | 283° |
| 2026-05-07 13:54 | 55.61020 | 39.53845 | 12599 ft | 377 kts | 283° |
| 2026-05-07 13:54 | 55.61623 | 39.49318 | 12350 ft | 377 kts | 283° |
| 2026-05-07 13:54 | 55.62220 | 39.44873 | 12108 ft | 375 kts | 283° |
| 2026-05-07 13:55 | 55.62825 | 39.40385 | 11861 ft | 373 kts | 283° |
| 2026-05-07 13:55 | 55.63429 | 39.35918 | 11614 ft | 373 kts | 283° |
| 2026-05-07 13:55 | 55.64028 | 39.31478 | 11374 ft | 371 kts | 282° |
| 2026-05-07 13:55 | 55.64630 | 39.27032 | 11128 ft | 370 kts | 282° |
| 2026-05-07 13:56 | 55.65230 | 39.22630 | 10874 ft | 368 kts | 282° |
| 2026-05-07 13:56 | 55.65825 | 39.18254 | 10641 ft | 367 kts | 282° |
| 2026-05-07 13:56 | 55.66423 | 39.13865 | 10394 ft | 366 kts | 282° |
| 2026-05-07 13:56 | 55.67024 | 39.09464 | 10150 ft | 365 kts | 282° |
| 2026-05-07 13:57 | 55.67623 | 39.05130 | 9903 ft | 364 kts | 282° |
| 2026-05-07 13:57 | 55.68217 | 39.00839 | 9661 ft | 362 kts | 282° |
| 2026-05-07 13:57 | 55.68821 | 38.96489 | 9413 ft | 362 kts | 282° |
| 2026-05-07 13:57 | 55.69422 | 38.92191 | 9166 ft | 359 kts | 282° |
| 2026-05-07 13:58 | 55.70023 | 38.87888 | 8913 ft | 359 kts | 282° |
| 2026-05-07 13:58 | 55.70613 | 38.83620 | 8670 ft | 358 kts | 282° |
| 2026-05-07 13:58 | 55.71201 | 38.79355 | 8429 ft | 356 kts | 282° |
| 2026-05-07 13:58 | 55.71755 | 38.75096 | 8177 ft | 355 kts | 279° |
| 2026-05-07 13:59 | 55.72136 | 38.70756 | 7936 ft | 355 kts | 277° |
| 2026-05-07 13:59 | 55.72501 | 38.66463 | 7674 ft | 352 kts | 277° |
| 2026-05-07 13:59 | 55.72828 | 38.62262 | 7402 ft | 332 kts | 274° |
| 2026-05-07 13:59 | 55.72974 | 38.58336 | 7141 ft | 314 kts | 272° |
| 2026-05-07 14:00 | 55.73109 | 38.54424 | 6890 ft | 316 kts | 272° |
| 2026-05-07 14:00 | 55.73211 | 38.50555 | 6635 ft | 315 kts | 269° |
| 2026-05-07 14:00 | 55.73156 | 38.46714 | 6366 ft | 314 kts | 268° |
| 2026-05-07 14:00 | 55.73092 | 38.42844 | 6140 ft | 313 kts | 268° |
| 2026-05-07 14:01 | 55.73027 | 38.39035 | 5857 ft | 300 kts | 268° |
| 2026-05-07 14:01 | 55.72966 | 38.35408 | 5650 ft | 289 kts | 268° |
| 2026-05-07 14:01 | 55.72907 | 38.31971 | 5513 ft | 272 kts | 266° |
| 2026-05-07 14:01 | 55.72847 | 38.28652 | 5346 ft | 270 kts | 266° |
| 2026-05-07 14:02 | 55.72513 | 38.25347 | 5204 ft | 277 kts | 253° |
| 2026-05-07 14:02 | 55.71967 | 38.22091 | 5078 ft | 274 kts | 253° |
| 2026-05-07 14:02 | 55.71434 | 38.18967 | 5002 ft | 255 kts | 253° |
| 2026-05-07 14:02 | 55.70924 | 38.15978 | 5020 ft | 251 kts | 252° |
| 2026-05-07 14:03 | 55.70386 | 38.13048 | 5024 ft | 256 kts | 251° |
| 2026-05-07 14:03 | 55.69814 | 38.10039 | 5020 ft | 255 kts | 251° |
| 2026-05-07 14:03 | 55.69257 | 38.07113 | 4898 ft | 246 kts | 251° |
| 2026-05-07 14:03 | 55.68721 | 38.04266 | 4389 ft | 247 kts | 251° |
| 2026-05-07 14:04 | 55.68176 | 38.01360 | 3906 ft | 244 kts | 250° |
| 2026-05-07 14:04 | 55.67367 | 37.98922 | 3439 ft | 225 kts | 222° |
| 2026-05-07 14:04 | 55.66026 | 37.97745 | 3008 ft | 213 kts | 188° |
| 2026-05-07 14:04 | 55.64608 | 37.98186 | 2612 ft | 208 kts | 154° |
| 2026-05-07 14:05 | 55.63509 | 37.99699 | 2231 ft | 198 kts | 142° |
| 2026-05-07 14:05 | 55.62556 | 38.01285 | 2039 ft | 173 kts | 142° |
| 2026-05-07 14:05 | 55.61769 | 38.02631 | 1968 ft | 145 kts | 142° |
| 2026-05-07 14:05 | 55.61180 | 38.03735 | 1888 ft | 144 kts | 135° |
| 2026-05-07 14:06 | 55.60553 | 38.04963 | 1843 ft | 141 kts | 142° |
| 2026-05-07 14:06 | 55.59844 | 38.06235 | 1645 ft | 148 kts | 142° |
| 2026-05-07 14:06 | 55.59118 | 38.07539 | 1371 ft | 150 kts | 142° |
| 2026-05-07 14:06 | 55.58390 | 38.08866 | 1156 ft | 152 kts | 138° |
| 2026-05-07 14:07 | 55.57675 | 38.10238 | 890 ft | 153 kts | 136° |
| 2026-05-07 14:07 | 55.56968 | 38.11650 | 624 ft | 156 kts | 135° |
| 2026-05-07 14:07 | 55.56260 | 38.13054 | 416 ft | 150 kts | 134° |
| 2026-05-07 14:07 | 55.55601 | 38.14352 | 389 ft | 119 kts | 131° |
| 2026-05-07 14:08 | 55.55193 | 38.15157 | 388 ft | 62 kts | 132° |
| 2026-05-07 14:08 | 55.55029 | 38.15427 | 388 ft | 13 kts | 182° |
| 2026-05-07 14:08 | 55.54952 | 38.15345 | 388 ft | 14 kts | 221° |
| 2026-05-07 14:08 | 55.54902 | 38.15204 | 388 ft | 13 kts | 281° |
| 2026-05-07 14:09 | 55.54983 | 38.15014 | 388 ft | 23 kts | 311° |
| 2026-05-07 14:09 | 55.55094 | 38.14791 | 388 ft | 27 kts | 311° |
| 2026-05-07 14:09 | 55.55224 | 38.14535 | 388 ft | 32 kts | 313° |
| 2026-05-07 14:09 | 55.55372 | 38.14241 | 388 ft | 31 kts | 312° |
| 2026-05-07 14:10 | 55.55510 | 38.13967 | 388 ft | 29 kts | 310° |
| 2026-05-07 14:10 | 55.55640 | 38.13707 | 388 ft | 27 kts | 311° |
| 2026-05-07 14:10 | 55.55762 | 38.13464 | 388 ft | 25 kts | 313° |
| 2026-05-07 14:10 | 55.55876 | 38.13239 | 388 ft | 23 kts | 311° |
| 2026-05-07 14:11 | 55.55984 | 38.13028 | 388 ft | 22 kts | 312° |
| 2026-05-07 14:11 | 55.56079 | 38.12823 | 388 ft | 21 kts | 300° |
| 2026-05-07 14:11 | 55.56156 | 38.12617 | 388 ft | 19 kts | 311° |
| 2026-05-07 14:11 | 55.56166 | 38.12473 | 388 ft | 11 kts | 229° |
| 2026-05-07 14:12 | 55.56110 | 38.12386 | 388 ft | 9 kts | 207° |
| 2026-05-07 14:12 | 55.56059 | 38.12405 | 388 ft | 7 kts | 137° |
| 2026-05-07 14:12 | 55.56031 | 38.12457 | 388 ft | 3 kts | 132° |
| 2026-05-07 14:12 | 55.56028 | 38.12462 | 388 ft | 0 kts | 132° |